Terminal Aerodrome Forecast
Issued by NWS Twin Cities, MN

Home | Current Version | Previous Version | Graphics & Text | Print | Product List | Glossary On
Versions: 1 2 3 4 5 6 7 8 9 10 11 12 13 14 15 16 17 18
000
FTUS43 KMPX 191100
TAFEAU
TAF
KEAU 191121Z 1912/2012 VRB03KT P6SM OVC012
     FM191400 17004KT P6SM -SN OVC015
     FM192000 16005KT P6SM OVC020=

USA.gov is the U.S. government's official web portal to all federal, state and local government web resources and services.